Time;durP1;ratioP1;P1;durP2;ratioP2;P2;SDS_P1;SDS_P2;PMS_P1;PMS_P2;Temp;Humidity;BMP_temperature;BMP_pressure;BME280_temperature;BME280_humidity;BME280_pressure;Samples;Min_cycle;Max_cycle;Signal;HPM_P1;HPM_P2
2022/08/21 00:00:52;;;;;;;2.33;1.90;;;;;;;;;;5060416;28;20229;-68
2022/08/21 00:03:24;;;;;;;2.65;2.00;;;;;;;;;;5043429;28;20212;-68
2022/08/21 00:05:51;;;;;;;2.00;1.80;;;;;;;;;;5058322;28;20200;-66
2022/08/21 00:08:19;;;;;;;2.70;2.00;;;;;;;;;;5046520;28;20213;-67
2022/08/21 00:10:47;;;;;;;3.67;1.73;;;;;;;;;;5053667;28;20231;-66
2022/08/21 00:13:15;;;;;;;2.72;2.13;;;;;;;;;;5055862;28;20217;-67
2022/08/21 00:15:45;;;;;;;2.22;1.80;;;;;;;;;;5040878;28;20324;-65
2022/08/21 00:18:12;;;;;;;2.45;2.15;;;;;;;;;;5054897;28;20206;-64
2022/08/21 00:20:42;;;;;;;2.20;2.00;;;;;;;;;;5046218;28;20217;-66
2022/08/21 00:23:10;;;;;;;3.17;1.98;;;;;;;;;;5039663;28;20210;-67
2022/08/21 00:25:37;;;;;;;2.97;2.10;;;;;;;;;;5048788;28;20209;-67
2022/08/21 00:28:06;;;;;;;2.50;1.90;;;;;;;;;;5043855;28;20270;-67
2022/08/21 00:30:34;;;;;;;3.40;1.90;;;;;;;;;;5059106;28;20260;-64
2022/08/21 00:33:01;;;;;;;2.63;2.15;;;;;;;;;;5065262;28;20213;-64
2022/08/21 00:35:31;;;;;;;3.80;2.05;;;;;;;;;;5047443;28;20201;-66
2022/08/21 00:37:59;;;;;;;3.72;2.10;;;;;;;;;;5057436;28;20252;-66
2022/08/21 00:40:31;;;;;;;4.63;2.15;;;;;;;;;;5037283;28;20229;-67
2022/08/21 00:42:59;;;;;;;2.17;2.00;;;;;;;;;;5055563;28;20582;-65
2022/08/21 00:45:27;;;;;;;2.28;2.03;;;;;;;;;;5059428;28;20222;-66
2022/08/21 00:47:55;;;;;;;3.15;2.10;;;;;;;;;;5058773;28;20259;-65
2022/08/21 00:50:23;;;;;;;3.63;1.83;;;;;;;;;;5060675;28;20237;-66
2022/08/21 00:52:52;;;;;;;3.20;2.45;;;;;;;;;;5044473;28;20262;-67
2022/08/21 00:55:20;;;;;;;2.05;1.90;;;;;;;;;;5075484;28;20217;-67
2022/08/21 00:57:51;;;;;;;5.55;2.05;;;;;;;;;;5067961;28;20673;-66
2022/08/21 01:00:21;;;;;;;2.83;1.83;;;;;;;;;;5039092;28;20232;-66
2022/08/21 01:02:48;;;;;;;3.50;2.20;;;;;;;;;;5053233;28;20198;-65
2022/08/21 01:05:16;;;;;;;2.22;2.03;;;;;;;;;;5042214;28;20263;-66
2022/08/21 01:07:44;;;;;;;2.92;1.85;;;;;;;;;;5041404;28;20217;-67
2022/08/21 01:10:13;;;;;;;3.92;2.30;;;;;;;;;;5048577;28;20244;-67
2022/08/21 01:12:52;;;;;;;2.88;2.05;;;;;;;;;;5046118;28;20239;-67
2022/08/21 01:15:20;;;;;;;3.22;2.25;;;;;;;;;;5029362;28;20202;-66
2022/08/21 01:17:48;;;;;;;2.72;2.17;;;;;;;;;;5060449;28;20225;-66
2022/08/21 01:20:16;;;;;;;5.57;2.08;;;;;;;;;;5057120;28;20232;-65
2022/08/21 01:22:44;;;;;;;3.28;2.20;;;;;;;;;;5040751;28;20484;-67
2022/08/21 01:25:13;;;;;;;3.17;2.05;;;;;;;;;;5039863;28;20216;-67
2022/08/21 01:27:44;;;;;;;2.28;2.08;;;;;;;;;;5041761;28;20210;-66
2022/08/21 01:30:14;;;;;;;3.03;2.30;;;;;;;;;;5053850;28;20755;-66
2022/08/21 01:32:42;;;;;;;2.03;1.90;;;;;;;;;;5046670;28;20310;-66
2022/08/21 01:35:11;;;;;;;3.10;1.80;;;;;;;;;;5055154;28;20236;-67
2022/08/21 01:37:38;;;;;;;2.60;2.20;;;;;;;;;;5052445;28;20198;-66
2022/08/21 01:40:06;;;;;;;3.90;2.30;;;;;;;;;;5046834;28;20225;-66
2022/08/21 01:42:34;;;;;;;4.30;2.33;;;;;;;;;;5046320;28;20775;-66
2022/08/21 01:45:01;;;;;;;1.95;1.85;;;;;;;;;;5050962;28;20244;-65
2022/08/21 01:47:28;;;;;;;3.47;2.35;;;;;;;;;;5041668;28;20217;-66
2022/08/21 01:49:56;;;;;;;2.83;2.00;;;;;;;;;;5040062;28;20237;-66
2022/08/21 01:52:23;;;;;;;3.30;2.10;;;;;;;;;;5039742;28;20225;-66
2022/08/21 01:54:51;;;;;;;3.15;2.50;;;;;;;;;;5046529;28;20194;-65
2022/08/21 01:57:22;;;;;;;4.85;2.08;;;;;;;;;;5040641;28;20260;-64
2022/08/21 01:59:52;;;;;;;3.13;2.22;;;;;;;;;;5050293;28;20225;-66
2022/08/21 02:02:20;;;;;;;4.03;2.45;;;;;;;;;;5053813;28;20240;-65
2022/08/21 02:04:47;;;;;;;3.78;2.22;;;;;;;;;;5054048;28;20221;-66
2022/08/21 02:07:15;;;;;;;3.63;2.35;;;;;;;;;;5042628;28;20206;-65
2022/08/21 02:09:43;;;;;;;4.03;2.47;;;;;;;;;;5040029;28;20202;-65
2022/08/21 02:12:11;;;;;;;2.88;2.03;;;;;;;;;;5045122;28;20225;-67
2022/08/21 02:14:38;;;;;;;3.35;2.38;;;;;;;;;;5057746;28;20201;-66
2022/08/21 02:17:06;;;;;;;4.60;2.40;;;;;;;;;;5057797;28;20205;-66
2022/08/21 02:19:36;;;;;;;3.72;2.30;;;;;;;;;;5059987;28;20210;-67
2022/08/21 02:22:08;;;;;;;4.45;2.53;;;;;;;;;;5043518;28;20214;-66
2022/08/21 02:24:36;;;;;;;2.40;2.20;;;;;;;;;;5049079;28;21316;-66
2022/08/21 02:27:20;;;;;;;5.85;2.40;;;;;;;;;;5059975;28;20214;-67
2022/08/21 02:29:52;;;;;;;4.38;2.22;;;;;;;;;;5032318;28;20259;-66
2022/08/21 02:32:21;;;;;;;5.50;2.60;;;;;;;;;;5055709;28;20229;-66
2022/08/21 02:34:48;;;;;;;4.80;2.60;;;;;;;;;;5041959;28;20212;-66
2022/08/21 02:37:16;;;;;;;6.13;2.30;;;;;;;;;;5029448;28;20213;-66
2022/08/21 02:39:44;;;;;;;2.38;2.20;;;;;;;;;;5040650;28;20237;-66
2022/08/21 02:42:11;;;;;;;3.67;2.67;;;;;;;;;;5033175;28;20209;-66
2022/08/21 02:44:39;;;;;;;3.72;2.42;;;;;;;;;;5042603;28;20210;-66
2022/08/21 02:47:06;;;;;;;4.03;2.80;;;;;;;;;;5054874;28;20225;-66
2022/08/21 02:49:34;;;;;;;6.88;3.00;;;;;;;;;;5034460;28;20291;-66
2022/08/21 02:52:01;;;;;;;3.28;2.28;;;;;;;;;;5052954;28;20221;-66
2022/08/21 02:54:28;;;;;;;3.33;2.45;;;;;;;;;;5051574;28;20248;-66
2022/08/21 02:56:56;;;;;;;3.70;2.55;;;;;;;;;;5050613;28;20315;-65
2022/08/21 02:59:24;;;;;;;3.53;2.42;;;;;;;;;;5048541;28;20202;-65
2022/08/21 03:01:53;;;;;;;3.72;2.85;;;;;;;;;;5035068;28;20216;-65
2022/08/21 03:04:21;;;;;;;3.17;2.43;;;;;;;;;;5031755;28;20206;-66
2022/08/21 03:06:49;;;;;;;3.22;2.25;;;;;;;;;;5052423;28;20291;-66
2022/08/21 03:09:16;;;;;;;4.13;2.70;;;;;;;;;;5050911;28;20266;-65
2022/08/21 03:11:44;;;;;;;2.53;2.35;;;;;;;;;;5048771;28;21663;-66
2022/08/21 03:14:11;;;;;;;4.63;2.70;;;;;;;;;;5054099;28;20608;-65
2022/08/21 03:16:38;;;;;;;4.38;2.90;;;;;;;;;;5057053;28;20204;-66
2022/08/21 03:19:05;;;;;;;4.85;2.47;;;;;;;;;;5062371;28;20230;-64
2022/08/21 03:21:33;;;;;;;5.10;2.88;;;;;;;;;;5045200;28;20225;-66
2022/08/21 03:24:01;;;;;;;5.03;2.67;;;;;;;;;;5054027;28;20205;-67
2022/08/21 03:26:30;;;;;;;5.55;3.00;;;;;;;;;;5050552;28;20224;-66
2022/08/21 03:28:58;;;;;;;3.88;2.75;;;;;;;;;;5043805;28;20267;-65
2022/08/21 03:31:30;;;;;;;3.70;2.63;;;;;;;;;;5053508;28;20563;-65
2022/08/21 03:33:58;;;;;;;4.55;2.38;;;;;;;;;;5044754;28;20197;-65
2022/08/21 03:36:26;;;;;;;4.63;2.67;;;;;;;;;;5057946;28;20247;-65
2022/08/21 03:38:53;;;;;;;4.53;2.85;;;;;;;;;;5054456;28;20206;-66
2022/08/21 03:41:21;;;;;;;6.03;2.72;;;;;;;;;;5052974;28;20241;-65
2022/08/21 03:43:48;;;;;;;4.35;3.13;;;;;;;;;;5048328;28;20713;-65
2022/08/21 03:46:16;;;;;;;5.45;2.67;;;;;;;;;;5047500;28;20222;-65
2022/08/21 03:48:44;;;;;;;5.82;3.00;;;;;;;;;;5046628;28;20209;-66
2022/08/21 03:51:12;;;;;;;3.28;2.50;;;;;;;;;;5071286;28;20218;-65
2022/08/21 03:53:39;;;;;;;3.25;2.60;;;;;;;;;;5048289;28;20262;-65
2022/08/21 03:56:07;;;;;;;2.78;2.47;;;;;;;;;;5040128;28;20456;-66
2022/08/21 03:58:35;;;;;;;3.85;2.65;;;;;;;;;;5059274;28;20231;-66
2022/08/21 04:01:04;;;;;;;7.43;2.90;;;;;;;;;;5043846;28;20714;-65
2022/08/21 04:03:31;;;;;;;6.65;2.50;;;;;;;;;;5046717;28;20208;-66
2022/08/21 04:05:59;;;;;;;3.53;2.65;;;;;;;;;;5052039;28;20209;-64
2022/08/21 04:08:26;;;;;;;2.78;2.58;;;;;;;;;;5054555;28;20206;-66
2022/08/21 04:10:56;;;;;;;4.40;2.80;;;;;;;;;;5052892;28;20221;-66
2022/08/21 04:13:23;;;;;;;5.87;3.23;;;;;;;;;;5060639;28;20238;-65
2022/08/21 04:15:51;;;;;;;3.25;2.70;;;;;;;;;;5034672;28;20251;-66
2022/08/21 04:18:18;;;;;;;5.43;3.38;;;;;;;;;;5037738;28;20202;-65
2022/08/21 04:20:48;;;;;;;3.55;2.70;;;;;;;;;;5049253;28;20221;-67
2022/08/21 04:23:16;;;;;;;5.28;2.90;;;;;;;;;;5056210;28;20275;-66
2022/08/21 04:25:50;;;;;;;6.10;3.00;;;;;;;;;;5071975;28;20287;-65
2022/08/21 04:28:18;;;;;;;4.97;3.13;;;;;;;;;;5044620;28;20205;-66
2022/08/21 04:30:45;;;;;;;5.10;3.17;;;;;;;;;;5041801;28;20889;-65
2022/08/21 04:33:13;;;;;;;4.53;3.37;;;;;;;;;;5058222;28;20222;-66
2022/08/21 04:35:41;;;;;;;5.63;3.50;;;;;;;;;;5050260;28;20282;-65
2022/08/21 04:38:09;;;;;;;7.50;3.33;;;;;;;;;;5057924;28;20212;-64
2022/08/21 04:40:37;;;;;;;3.40;2.70;;;;;;;;;;5054697;28;20283;-65
2022/08/21 04:43:07;;;;;;;4.40;3.20;;;;;;;;;;5044007;28;20210;-65
2022/08/21 04:45:36;;;;;;;4.30;3.10;;;;;;;;;;5060188;28;20212;-65
2022/08/21 04:48:05;;;;;;;4.82;2.92;;;;;;;;;;5062467;28;20222;-64
2022/08/21 04:50:42;;;;;;;4.07;3.00;;;;;;;;;;5061205;28;20225;-66
2022/08/21 04:53:15;;;;;;;3.30;3.00;;;;;;;;;;5057323;28;20221;-66
2022/08/21 04:55:44;;;;;;;5.30;3.20;;;;;;;;;;5050378;28;20205;-66
2022/08/21 04:58:13;;;;;;;4.83;3.20;;;;;;;;;;5057199;28;20197;-66
2022/08/21 05:00:40;;;;;;;4.57;3.00;;;;;;;;;;5058036;28;20217;-65
2022/08/21 05:03:09;;;;;;;4.10;2.60;;;;;;;;;;5041596;28;20670;-65
2022/08/21 05:05:37;;;;;;;2.60;2.40;;;;;;;;;;5057815;28;20231;-65
2022/08/21 05:08:05;;;;;;;4.67;2.80;;;;;;;;;;5056465;28;20221;-65
2022/08/21 05:10:32;;;;;;;2.97;2.70;;;;;;;;;;5059354;28;20222;-65
2022/08/21 05:13:00;;;;;;;5.20;2.80;;;;;;;;;;5054311;28;20630;-66
2022/08/21 05:15:29;;;;;;;5.30;3.40;;;;;;;;;;5044852;28;20203;-66
2022/08/21 05:17:57;;;;;;;6.93;3.00;;;;;;;;;;5041372;28;20202;-66
2022/08/21 05:20:28;;;;;;;3.50;2.90;;;;;;;;;;5041083;28;20229;-66
2022/08/21 05:22:55;;;;;;;5.27;3.00;;;;;;;;;;5042396;28;20660;-66
2022/08/21 05:25:23;;;;;;;4.07;2.87;;;;;;;;;;5036711;28;20209;-66
2022/08/21 05:27:50;;;;;;;7.50;2.90;;;;;;;;;;5058778;28;20218;-65
2022/08/21 05:30:19;;;;;;;5.33;3.00;;;;;;;;;;5042237;28;20324;-65
2022/08/21 05:32:47;;;;;;;5.40;3.40;;;;;;;;;;5058316;28;20234;-65
2022/08/21 05:35:15;;;;;;;3.63;2.70;;;;;;;;;;5056477;28;20729;-65
2022/08/21 05:37:43;;;;;;;3.53;3.00;;;;;;;;;;5050704;28;20210;-65
2022/08/21 05:40:10;;;;;;;5.10;2.93;;;;;;;;;;5046879;28;20711;-66
2022/08/21 05:42:52;;;;;;;3.33;2.95;;;;;;;;;;5054216;28;20542;-66
2022/08/21 05:45:25;;;;;;;7.28;2.60;;;;;;;;;;5054863;28;20240;-66
2022/08/21 05:48:14;;;;;;;4.18;2.63;;;;;;;;;;5052450;28;20214;-66
2022/08/21 05:50:42;;;;;;;3.55;2.55;;;;;;;;;;5039069;28;20603;-66
2022/08/21 05:53:10;;;;;;;6.10;2.70;;;;;;;;;;5048650;28;20229;-66
2022/08/21 05:55:38;;;;;;;3.60;2.53;;;;;;;;;;5052841;28;20202;-65
2022/08/21 05:58:13;;;;;;;3.53;2.70;;;;;;;;;;5052597;28;20207;-66
2022/08/21 06:00:41;;;;;;;4.82;3.33;;;;;;;;;;5053087;28;20221;-65
2022/08/21 06:03:17;;;;;;;7.90;5.05;;;;;;;;;;5058506;28;20267;-66
2022/08/21 06:05:45;;;;;;;7.25;5.50;;;;;;;;;;5052191;28;20283;-66
2022/08/21 06:08:13;;;;;;;9.98;6.47;;;;;;;;;;5043438;28;20210;-66
2022/08/21 06:10:40;;;;;;;5.65;5.13;;;;;;;;;;5039627;28;20370;-66
2022/08/21 06:13:08;;;;;;;6.45;4.57;;;;;;;;;;5038164;28;20272;-66
2022/08/21 06:15:35;;;;;;;7.05;3.88;;;;;;;;;;5046208;28;20225;-66
2022/08/21 06:18:02;;;;;;;4.38;3.45;;;;;;;;;;5047396;28;20254;-66
2022/08/21 06:20:31;;;;;;;4.47;2.97;;;;;;;;;;5037738;28;20631;-66
2022/08/21 06:22:58;;;;;;;6.30;3.35;;;;;;;;;;5033966;28;20300;-65
2022/08/21 06:25:27;;;;;;;6.97;3.47;;;;;;;;;;5038426;28;20232;-66
2022/08/21 06:28:00;;;;;;;5.22;2.90;;;;;;;;;;5049459;28;20209;-66
2022/08/21 06:30:27;;;;;;;4.78;2.95;;;;;;;;;;5045508;28;20246;-65
2022/08/21 06:32:55;;;;;;;4.18;3.10;;;;;;;;;;5045888;28;20304;-66
2022/08/21 06:35:24;;;;;;;4.25;3.03;;;;;;;;;;5045196;28;20214;-65
2022/08/21 06:37:51;;;;;;;3.92;3.05;;;;;;;;;;5036095;28;20330;-66
2022/08/21 06:40:19;;;;;;;3.78;2.95;;;;;;;;;;5046334;28;20569;-66
2022/08/21 06:42:48;;;;;;;3.85;3.30;;;;;;;;;;5034698;28;20944;-65
2022/08/21 06:45:16;;;;;;;7.47;3.55;;;;;;;;;;5049884;28;20442;-66
2022/08/21 06:47:43;;;;;;;4.50;3.30;;;;;;;;;;5035896;28;20980;-65
2022/08/21 06:50:11;;;;;;;6.10;3.45;;;;;;;;;;5028661;28;20230;-64
2022/08/21 06:52:38;;;;;;;6.90;3.08;;;;;;;;;;5038694;28;20229;-64
2022/08/21 06:55:07;;;;;;;6.03;3.03;;;;;;;;;;5034949;28;20212;-64
2022/08/21 06:57:35;;;;;;;5.70;3.08;;;;;;;;;;5009901;28;20202;-66
2022/08/21 07:00:06;;;;;;;6.22;3.60;;;;;;;;;;5025085;28;20217;-65
2022/08/21 07:02:33;;;;;;;4.88;3.40;;;;;;;;;;5028851;28;20215;-65
2022/08/21 07:05:01;;;;;;;5.80;3.55;;;;;;;;;;5024487;28;20268;-65
2022/08/21 07:07:45;;;;;;;3.95;2.70;;;;;;;;;;5043654;28;20214;-64
2022/08/21 07:10:13;;;;;;;5.28;3.03;;;;;;;;;;5044736;28;20232;-64
2022/08/21 07:12:50;;;;;;;6.30;3.10;;;;;;;;;;5042466;28;22486;-64
2022/08/21 07:15:30;;;;;;;4.28;3.05;;;;;;;;;;5026114;28;20892;-64
2022/08/21 07:18:01;;;;;;;5.82;3.30;;;;;;;;;;5040775;28;20210;-64
2022/08/21 07:20:30;;;;;;;4.00;2.88;;;;;;;;;;5031362;28;20274;-64
2022/08/21 07:23:00;;;;;;;4.30;2.97;;;;;;;;;;5027792;28;20213;-64
2022/08/21 07:25:28;;;;;;;3.92;2.65;;;;;;;;;;5034001;28;20213;-65
2022/08/21 07:27:55;;;;;;;5.15;2.83;;;;;;;;;;5024775;28;20201;-64
2022/08/21 07:30:22;;;;;;;5.50;3.38;;;;;;;;;;5034918;28;20229;-65
2022/08/21 07:32:50;;;;;;;4.18;2.92;;;;;;;;;;5037991;28;20303;-65
2022/08/21 07:35:18;;;;;;;4.07;2.83;;;;;;;;;;5035122;28;20693;-65
2022/08/21 07:37:46;;;;;;;6.32;3.40;;;;;;;;;;5018054;28;20205;-65
2022/08/21 07:40:13;;;;;;;4.03;2.97;;;;;;;;;;5044670;28;20282;-64
2022/08/21 07:42:46;;;;;;;4.88;3.85;;;;;;;;;;5044983;28;20210;-66
2022/08/21 07:45:15;;;;;;;5.10;3.50;;;;;;;;;;5044475;28;20202;-66
2022/08/21 07:47:42;;;;;;;5.35;3.47;;;;;;;;;;5052082;28;21570;-65
2022/08/21 07:50:11;;;;;;;5.15;3.80;;;;;;;;;;5050382;28;20234;-66
2022/08/21 07:52:39;;;;;;;4.57;3.30;;;;;;;;;;5034771;28;20226;-66
2022/08/21 07:55:08;;;;;;;8.65;3.35;;;;;;;;;;5037609;28;20213;-66
2022/08/21 07:57:35;;;;;;;4.22;2.75;;;;;;;;;;5040163;28;20206;-66
2022/08/21 08:00:10;;;;;;;5.40;2.75;;;;;;;;;;5039976;28;20524;-66
2022/08/21 08:02:38;;;;;;;5.88;3.10;;;;;;;;;;5033934;28;20228;-67
2022/08/21 08:05:06;;;;;;;5.20;3.10;;;;;;;;;;5044584;28;20205;-66
2022/08/21 08:07:34;;;;;;;5.20;2.42;;;;;;;;;;5041468;28;20244;-66
2022/08/21 08:10:04;;;;;;;3.72;2.78;;;;;;;;;;5045062;28;20234;-66
2022/08/21 08:12:31;;;;;;;3.97;2.90;;;;;;;;;;5029488;28;20229;-66
2022/08/21 08:15:00;;;;;;;5.18;2.90;;;;;;;;;;5035846;28;20217;-65
2022/08/21 08:17:27;;;;;;;5.65;2.85;;;;;;;;;;5051412;28;20240;-66
2022/08/21 08:19:55;;;;;;;6.55;2.92;;;;;;;;;;5037594;28;20229;-65
2022/08/21 08:22:24;;;;;;;5.85;3.25;;;;;;;;;;5049652;28;20197;-65
2022/08/21 08:24:52;;;;;;;5.63;2.85;;;;;;;;;;5037517;28;21078;-65
2022/08/21 08:27:20;;;;;;;5.50;2.72;;;;;;;;;;5046750;28;20202;-66
2022/08/21 08:29:49;;;;;;;3.60;2.90;;;;;;;;;;5051513;28;20217;-65
2022/08/21 08:32:18;;;;;;;4.47;2.65;;;;;;;;;;5048315;28;20682;-65
2022/08/21 08:34:46;;;;;;;5.88;2.97;;;;;;;;;;5061495;28;20202;-65
2022/08/21 08:37:14;;;;;;;6.13;2.95;;;;;;;;;;5044583;28;20263;-64
2022/08/21 08:39:42;;;;;;;6.25;2.88;;;;;;;;;;5053603;28;20570;-65
2022/08/21 08:42:15;;;;;;;3.00;2.22;;;;;;;;;;5047624;28;20220;-65
2022/08/21 08:45:03;;;;;;;4.53;2.55;;;;;;;;;;5046513;28;20232;-65
2022/08/21 08:47:32;;;;;;;5.38;2.70;;;;;;;;;;5048314;28;20225;-64
2022/08/21 08:50:10;;;;;;;4.03;3.10;;;;;;;;;;5050476;28;20322;-64
2022/08/21 08:52:42;;;;;;;5.78;2.88;;;;;;;;;;5046309;28;20229;-65
2022/08/21 08:55:21;;;;;;;5.80;2.70;;;;;;;;;;5065878;28;20201;-65
2022/08/21 08:57:54;;;;;;;6.63;2.90;;;;;;;;;;5074504;28;20339;-64
2022/08/21 09:00:22;;;;;;;6.13;2.70;;;;;;;;;;5059454;28;20231;-65
2022/08/21 09:02:53;;;;;;;3.35;3.03;;;;;;;;;;5052637;28;20213;-64
2022/08/21 09:05:26;;;;;;;4.78;3.00;;;;;;;;;;5050254;28;20574;-64
2022/08/21 09:08:02;;;;;;;3.88;2.97;;;;;;;;;;5047967;28;20625;-65
2022/08/21 09:10:50;;;;;;;5.65;2.97;;;;;;;;;;5041257;28;20318;-65
2022/08/21 09:13:33;;;;;;;4.28;2.72;;;;;;;;;;5017555;28;20257;-64
2022/08/21 09:16:19;;;;;;;4.28;2.75;;;;;;;;;;5023606;28;20288;-65
2022/08/21 09:19:05;;;;;;;4.38;2.67;;;;;;;;;;5047296;28;20202;-65
2022/08/21 09:21:41;;;;;;;5.82;2.67;;;;;;;;;;5058168;28;20218;-65
2022/08/21 09:24:18;;;;;;;3.47;2.70;;;;;;;;;;5029153;28;20221;-65
2022/08/21 09:26:57;;;;;;;3.20;2.30;;;;;;;;;;5058899;28;20338;-65
2022/08/21 09:29:26;;;;;;;4.88;2.58;;;;;;;;;;5053705;28;20202;-65
2022/08/21 09:31:53;;;;;;;4.32;2.70;;;;;;;;;;5047703;28;20211;-65
2022/08/21 09:34:26;;;;;;;4.43;2.50;;;;;;;;;;5058146;28;20698;-66
2022/08/21 09:36:53;;;;;;;5.75;2.40;;;;;;;;;;5045915;28;20240;-65
2022/08/21 09:39:24;;;;;;;2.90;2.15;;;;;;;;;;5057029;28;20209;-65
2022/08/21 09:42:05;;;;;;;2.83;2.30;;;;;;;;;;5055021;28;20232;-65
2022/08/21 09:44:35;;;;;;;4.40;2.38;;;;;;;;;;5038658;28;20236;-65
2022/08/21 09:47:03;;;;;;;5.53;2.38;;;;;;;;;;5059379;28;20632;-65
2022/08/21 09:49:32;;;;;;;4.45;2.60;;;;;;;;;;5053342;28;20232;-65
2022/08/21 09:52:00;;;;;;;3.00;2.35;;;;;;;;;;5041803;28;20198;-66
2022/08/21 09:54:30;;;;;;;4.13;2.17;;;;;;;;;;5045038;28;20234;-65
2022/08/21 10:00:08;;;;;;;5.50;2.65;;;;;;;;;;5064621;28;20225;-66
2022/08/21 10:02:36;;;;;;;4.53;2.95;;;;;;;;;;5064066;28;20243;-66
2022/08/21 10:05:24;;;;;;;5.47;2.60;;;;;;;;;;5065118;28;20260;-65
2022/08/21 10:07:52;;;;;;;4.80;2.38;;;;;;;;;;5072208;28;20202;-66
2022/08/21 10:10:24;;;;;;;3.67;2.80;;;;;;;;;;5063335;28;20432;-65
2022/08/21 10:12:58;;;;;;;3.60;2.38;;;;;;;;;;5061784;28;20573;-65
2022/08/21 10:15:32;;;;;;;4.55;2.47;;;;;;;;;;5044260;28;20298;-65
2022/08/21 10:18:02;;;;;;;10.77;9.35;;;;;;;;;;5071787;28;20201;-66
2022/08/21 10:20:56;;;;;;;6.78;3.30;;;;;;;;;;5058538;28;20607;-65
2022/08/21 10:23:32;;;;;;;4.95;2.50;;;;;;;;;;5037319;28;20335;-65
2022/08/21 10:26:26;;;;;;;4.00;2.40;;;;;;;;;;5054240;28;20274;-65
2022/08/21 10:29:06;;;;;;;3.42;2.45;;;;;;;;;;5045685;28;20769;-66
2022/08/21 10:31:39;;;;;;;4.00;2.45;;;;;;;;;;5052146;28;20569;-65
2022/08/21 10:34:16;;;;;;;3.65;2.38;;;;;;;;;;5047022;28;20359;-65
2022/08/21 10:36:46;;;;;;;4.93;2.50;;;;;;;;;;5057843;28;20252;-65
2022/08/21 10:39:17;;;;;;;2.00;1.80;;;;;;;;;;5051399;28;20202;-66
2022/08/21 10:42:05;;;;;;;4.57;2.47;;;;;;;;;;5062975;28;20348;-66
2022/08/21 10:44:44;;;;;;;4.55;2.30;;;;;;;;;;5068780;28;20342;-66
2022/08/21 10:47:30;;;;;;;3.90;2.00;;;;;;;;;;5063843;28;20583;-65
2022/08/21 10:50:19;;;;;;;6.05;2.40;;;;;;;;;;5039001;28;20302;-66
2022/08/21 10:52:56;;;;;;;3.08;2.35;;;;;;;;;;5043791;28;20267;-66
2022/08/21 10:55:31;;;;;;;4.45;3.03;;;;;;;;;;5050588;28;20231;-65
2022/08/21 10:58:05;;;;;;;5.45;3.10;;;;;;;;;;5042670;28;20204;-65
2022/08/21 11:00:53;;;;;;;3.65;2.80;;;;;;;;;;5045414;28;20221;-65
2022/08/21 11:03:24;;;;;;;3.22;2.50;;;;;;;;;;5047783;28;20648;-66
2022/08/21 11:05:54;;;;;;;4.43;2.10;;;;;;;;;;5045411;28;22131;-65
2022/08/21 11:08:30;;;;;;;2.03;1.90;;;;;;;;;;5036251;28;20292;-66
2022/08/21 11:11:00;;;;;;;2.20;1.90;;;;;;;;;;5040678;28;20232;-65
2022/08/21 11:13:33;;;;;;;3.33;2.08;;;;;;;;;;5043931;28;20306;-66
2022/08/21 11:16:19;;;;;;;3.47;2.00;;;;;;;;;;5040373;28;20201;-66
2022/08/21 11:18:54;;;;;;;3.35;2.45;;;;;;;;;;5064812;28;20206;-65
2022/08/21 11:21:40;;;;;;;4.45;2.25;;;;;;;;;;5071094;28;20213;-65
2022/08/21 11:24:20;;;;;;;1.88;1.75;;;;;;;;;;5048085;28;20217;-66
2022/08/21 11:27:00;;;;;;;2.88;2.20;;;;;;;;;;5051953;28;20628;-66
2022/08/21 11:29:28;;;;;;;3.22;2.10;;;;;;;;;;5047337;28;20209;-66
2022/08/21 11:31:56;;;;;;;2.63;2.28;;;;;;;;;;5067950;28;20682;-65
2022/08/21 11:34:26;;;;;;;3.15;2.17;;;;;;;;;;5068980;28;20217;-64
2022/08/21 11:37:18;;;;;;;2.45;2.00;;;;;;;;;;5060368;28;20248;-66
2022/08/21 11:39:53;;;;;;;1.67;1.58;;;;;;;;;;5065359;28;20208;-66
2022/08/21 11:42:25;;;;;;;3.65;2.60;;;;;;;;;;5051556;28;20211;-66
2022/08/21 11:45:03;;;;;;;3.38;2.20;;;;;;;;;;5075358;28;20205;-63
2022/08/21 11:47:46;;;;;;;3.13;2.58;;;;;;;;;;5061503;28;20217;-67
2022/08/21 11:50:22;;;;;;;4.60;3.00;;;;;;;;;;5043953;28;20675;-64
2022/08/21 11:53:20;;;;;;;3.03;2.55;;;;;;;;;;5060507;28;20290;-64
2022/08/21 11:55:55;;;;;;;2.47;2.10;;;;;;;;;;5071424;28;20673;-65
2022/08/21 11:58:32;;;;;;;3.30;1.95;;;;;;;;;;5065234;28;20704;-64
2022/08/21 12:01:07;;;;;;;2.15;1.95;;;;;;;;;;5066952;28;20229;-65
2022/08/21 12:03:37;;;;;;;4.65;2.13;;;;;;;;;;5059590;28;20876;-65
2022/08/21 12:06:09;;;;;;;4.07;2.10;;;;;;;;;;5062612;28;20209;-66
2022/08/21 12:08:42;;;;;;;2.92;1.73;;;;;;;;;;5061150;28;20206;-66
2022/08/21 12:11:11;;;;;;;2.70;1.98;;;;;;;;;;5066158;28;20285;-66
2022/08/21 12:13:40;;;;;;;2.38;1.95;;;;;;;;;;5043074;28;20222;-66
2022/08/21 12:16:28;;;;;;;2.13;1.65;;;;;;;;;;5064755;28;20746;-64
2022/08/21 12:19:07;;;;;;;2.25;1.90;;;;;;;;;;5062135;28;20205;-64
2022/08/21 12:21:47;;;;;;;4.40;1.83;;;;;;;;;;5063916;28;21025;-64
2022/08/21 12:24:14;;;;;;;2.67;1.83;;;;;;;;;;5076782;28;20691;-64
2022/08/21 12:26:53;;;;;;;2.85;2.03;;;;;;;;;;5056508;28;20204;-65
2022/08/21 12:29:24;;;;;;;2.47;1.67;;;;;;;;;;5059064;28;20205;-64
2022/08/21 12:31:53;;;;;;;2.40;1.60;;;;;;;;;;5051328;28;20234;-66
2022/08/21 12:34:23;;;;;;;2.47;1.80;;;;;;;;;;5057264;28;20291;-65
2022/08/21 12:36:55;;;;;;;3.35;1.80;;;;;;;;;;5044965;28;20224;-66
2022/08/21 12:39:27;;;;;;;2.15;1.80;;;;;;;;;;5064734;28;20201;-66
2022/08/21 12:42:00;;;;;;;1.95;1.80;;;;;;;;;;5061554;28;20202;-65
2022/08/21 12:44:33;;;;;;;2.92;1.92;;;;;;;;;;5057870;28;20210;-65
2022/08/21 12:47:14;;;;;;;2.25;1.80;;;;;;;;;;5041100;28;20275;-65
2022/08/21 12:49:51;;;;;;;2.63;1.73;;;;;;;;;;5064066;28;20229;-65
2022/08/21 12:52:23;;;;;;;2.20;2.00;;;;;;;;;;5067084;28;20201;-65
2022/08/21 12:54:51;;;;;;;1.95;1.75;;;;;;;;;;5061458;28;20225;-66
2022/08/21 12:57:20;;;;;;;2.72;2.05;;;;;;;;;;5046273;28;20221;-64
2022/08/21 12:59:52;;;;;;;2.80;1.70;;;;;;;;;;5080202;28;20226;-65
2022/08/21 13:02:22;;;;;;;2.85;2.13;;;;;;;;;;5044022;28;20206;-65
2022/08/21 13:04:50;;;;;;;2.63;1.90;;;;;;;;;;5060327;28;20301;-64
2022/08/21 13:07:22;;;;;;;3.00;2.03;;;;;;;;;;5045588;28;20259;-65
2022/08/21 13:09:52;;;;;;;4.03;2.00;;;;;;;;;;5044524;28;20229;-63
2022/08/21 13:12:21;;;;;;;2.33;1.80;;;;;;;;;;5071476;28;20220;-64
2022/08/21 13:14:49;;;;;;;3.22;2.08;;;;;;;;;;5045947;28;20241;-63
2022/08/21 13:17:18;;;;;;;3.92;2.60;;;;;;;;;;5041184;28;20453;-65
2022/08/21 13:20:00;;;;;;;3.70;2.38;;;;;;;;;;5041706;28;20224;-64
2022/08/21 13:22:28;;;;;;;4.28;2.35;;;;;;;;;;5056385;28;20209;-63
2022/08/21 13:25:01;;;;;;;5.05;3.13;;;;;;;;;;5055251;28;20221;-65
2022/08/21 13:27:34;;;;;;;3.63;2.38;;;;;;;;;;5053836;28;20213;-65
2022/08/21 13:30:13;;;;;;;4.32;2.38;;;;;;;;;;5042575;28;20706;-65
2022/08/21 13:32:42;;;;;;;2.88;2.25;;;;;;;;;;5042174;28;20253;-65
2022/08/21 13:35:16;;;;;;;2.20;1.90;;;;;;;;;;5057474;28;20241;-64
2022/08/21 13:37:49;;;;;;;2.88;1.88;;;;;;;;;;5058778;28;20248;-63
2022/08/21 13:40:20;;;;;;;3.58;2.10;;;;;;;;;;5060053;28;20231;-65
2022/08/21 13:42:53;;;;;;;4.95;2.47;;;;;;;;;;5048404;28;20276;-63
2022/08/21 13:45:41;;;;;;;2.65;2.25;;;;;;;;;;5043932;28;20293;-63
2022/08/21 13:48:10;;;;;;;2.70;1.90;;;;;;;;;;5053422;28;20221;-64
2022/08/21 13:50:38;;;;;;;2.20;2.00;;;;;;;;;;5050786;28;21039;-63
2022/08/21 13:53:07;;;;;;;3.67;2.25;;;;;;;;;;5031645;28;20225;-65
2022/08/21 13:55:36;;;;;;;4.38;2.00;;;;;;;;;;5055400;28;20230;-65
2022/08/21 13:58:05;;;;;;;2.33;2.00;;;;;;;;;;5036744;28;22827;-65
2022/08/21 14:00:35;;;;;;;5.53;2.42;;;;;;;;;;5050439;28;20230;-64
2022/08/21 14:03:06;;;;;;;2.80;1.90;;;;;;;;;;5047269;28;20202;-66
2022/08/21 14:05:34;;;;;;;;;;;;;;;;;;5056573;28;20060;-66
2022/08/21 14:08:01;;;;;;;;;;;;;;;;;;5054556;28;19928;-66
2022/08/21 14:10:30;;;;;;;3.58;1.63;;;;;;;;;;5055262;28;20075;-65
2022/08/21 14:12:57;;;;;;;2.80;1.65;;;;;;;;;;5050013;28;20414;-66
2022/08/21 14:15:28;;;;;;;2.65;1.90;;;;;;;;;;5058531;28;20228;-65
2022/08/21 14:18:07;;;;;;;2.83;1.85;;;;;;;;;;5055168;28;20210;-66
2022/08/21 14:20:35;;;;;;;2.15;1.83;;;;;;;;;;5054154;28;20224;-68
2022/08/21 14:23:03;;;;;;;1.90;1.80;;;;;;;;;;5052602;28;20699;-66
2022/08/21 14:25:41;;;;;;;2.88;1.83;;;;;;;;;;5035340;28;20208;-66
2022/08/21 14:28:25;;;;;;;2.15;1.88;;;;;;;;;;5064132;28;20209;-65
2022/08/21 14:30:54;;;;;;;1.98;1.70;;;;;;;;;;5048460;28;21502;-66
2022/08/21 14:33:25;;;;;;;3.20;2.05;;;;;;;;;;5068771;28;20205;-65
2022/08/21 14:35:53;;;;;;;3.15;1.58;;;;;;;;;;5053367;28;20248;-66
2022/08/21 14:38:22;;;;;;;2.92;2.00;;;;;;;;;;5058785;28;20197;-65
2022/08/21 14:40:51;;;;;;;2.78;2.08;;;;;;;;;;5050791;28;20221;-66
2022/08/21 14:43:19;;;;;;;3.83;2.30;;;;;;;;;;5051248;28;20217;-65
2022/08/21 14:45:47;;;;;;;5.95;2.22;;;;;;;;;;5054086;28;20201;-66
2022/08/21 14:48:15;;;;;;;2.92;2.00;;;;;;;;;;5050325;28;20214;-65
2022/08/21 14:50:42;;;;;;;2.63;2.10;;;;;;;;;;5068614;28;20234;-66
2022/08/21 14:53:09;;;;;;;3.63;1.98;;;;;;;;;;5054730;28;20206;-65
2022/08/21 14:58:25;;;;;;;3.80;2.25;;;;;;;;;;5054702;28;20208;-65
2022/08/21 15:00:54;;;;;;;2.33;2.13;;;;;;;;;;5054668;28;20228;-65
2022/08/21 15:03:22;;;;;;;4.78;2.35;;;;;;;;;;5055194;28;20250;-65
2022/08/21 15:05:51;;;;;;;2.90;2.28;;;;;;;;;;5039791;28;20210;-65
2022/08/21 15:08:19;;;;;;;2.30;2.10;;;;;;;;;;5061677;28;20212;-65
2022/08/21 15:10:46;;;;;;;6.43;2.50;;;;;;;;;;5051755;28;20221;-66